sensor_id;sensor_type;location;lat;lon;timestamp;pressure;altitude;pressure_sealevel;temperature;humidity
78717;BME280;68045;50.042;14.432;2023-04-25T00:03:25;97542.09;;;9.23;61.90
78717;BME280;68045;50.042;14.432;2023-04-25T00:07:26;97535.81;;;9.07;61.58
78717;BME280;68045;50.042;14.432;2023-04-25T00:11:27;97541.47;;;8.99;61.64
78717;BME280;68045;50.042;14.432;2023-04-25T00:15:28;97525.44;;;9.00;62.62
78717;BME280;68045;50.042;14.432;2023-04-25T00:19:31;97536.53;;;9.02;63.05
78717;BME280;68045;50.042;14.432;2023-04-25T00:23:33;97532.78;;;8.98;62.91
78717;BME280;68045;50.042;14.432;2023-04-25T00:27:36;97546.34;;;9.07;63.09
78717;BME280;68045;50.042;14.432;2023-04-25T00:31:37;97540.41;;;9.00;62.90
78717;BME280;68045;50.042;14.432;2023-04-25T00:35:38;97541.56;;;9.04;63.19
78717;BME280;68045;50.042;14.432;2023-04-25T00:39:39;97534.06;;;8.96;62.67
78717;BME280;68045;50.042;14.432;2023-04-25T00:43:40;97542.69;;;8.79;63.30
78717;BME280;68045;50.042;14.432;2023-04-25T00:47:41;97530.63;;;8.67;64.03
78717;BME280;68045;50.042;14.432;2023-04-25T00:51:43;97541.88;;;8.62;64.75
78717;BME280;68045;50.042;14.432;2023-04-25T00:55:47;97534.94;;;8.44;64.84
78717;BME280;68045;50.042;14.432;2023-04-25T00:59:51;97532.22;;;8.27;65.36
78717;BME280;68045;50.042;14.432;2023-04-25T01:03:54;97534.44;;;8.19;66.32
78717;BME280;68045;50.042;14.432;2023-04-25T01:07:55;97532.84;;;8.18;66.16
78717;BME280;68045;50.042;14.432;2023-04-25T01:11:56;97535.13;;;8.03;66.47
78717;BME280;68045;50.042;14.432;2023-04-25T01:15:59;97529.44;;;7.94;66.81
78717;BME280;68045;50.042;14.432;2023-04-25T01:20:06;97528.53;;;7.88;67.34
78717;BME280;68045;50.042;14.432;2023-04-25T01:24:08;97519.97;;;7.81;67.66
78717;BME280;68045;50.042;14.432;2023-04-25T01:28:09;97523.75;;;7.74;68.15
78717;BME280;68045;50.042;14.432;2023-04-25T01:32:10;97517.47;;;7.75;67.86
78717;BME280;68045;50.042;14.432;2023-04-25T01:36:12;97520.09;;;7.75;68.08
78717;BME280;68045;50.042;14.432;2023-04-25T01:40:13;97514.06;;;7.62;68.12
78717;BME280;68045;50.042;14.432;2023-04-25T01:44:15;97520.56;;;7.48;69.56
78717;BME280;68045;50.042;14.432;2023-04-25T01:48:16;97516.91;;;7.49;68.89
78717;BME280;68045;50.042;14.432;2023-04-25T01:52:18;97528.22;;;7.38;69.63
78717;BME280;68045;50.042;14.432;2023-04-25T01:56:19;97519.63;;;7.31;69.76
78717;BME280;68045;50.042;14.432;2023-04-25T02:00:21;97522.72;;;7.28;69.61
78717;BME280;68045;50.042;14.432;2023-04-25T02:04:22;97529.69;;;7.22;70.39
78717;BME280;68045;50.042;14.432;2023-04-25T02:08:23;97521.56;;;7.12;70.98
78717;BME280;68045;50.042;14.432;2023-04-25T02:12:29;97523.50;;;7.05;71.06
78717;BME280;68045;50.042;14.432;2023-04-25T02:16:40;97527.59;;;7.01;71.44
78717;BME280;68045;50.042;14.432;2023-04-25T02:20:42;97518.34;;;6.98;71.46
78717;BME280;68045;50.042;14.432;2023-04-25T02:24:43;97519.25;;;6.92;72.60
78717;BME280;68045;50.042;14.432;2023-04-25T02:28:44;97507.25;;;6.84;73.06
78717;BME280;68045;50.042;14.432;2023-04-25T02:32:46;97507.78;;;6.75;73.30
78717;BME280;68045;50.042;14.432;2023-04-25T02:36:48;97501.50;;;6.76;73.30
78717;BME280;68045;50.042;14.432;2023-04-25T02:40:52;97503.00;;;6.72;73.91
78717;BME280;68045;50.042;14.432;2023-04-25T02:44:53;97499.13;;;6.74;73.33
78717;BME280;68045;50.042;14.432;2023-04-25T02:48:54;97508.25;;;6.72;74.06
78717;BME280;68045;50.042;14.432;2023-04-25T02:52:55;97504.91;;;6.65;74.77
78717;BME280;68045;50.042;14.432;2023-04-25T02:57:01;97498.50;;;6.60;74.69
78717;BME280;68045;50.042;14.432;2023-04-25T03:01:08;97496.44;;;6.51;75.17
78717;BME280;68045;50.042;14.432;2023-04-25T03:05:09;97492.34;;;6.55;75.08
78717;BME280;68045;50.042;14.432;2023-04-25T03:09:11;97486.84;;;6.45;74.80
78717;BME280;68045;50.042;14.432;2023-04-25T03:13:11;97483.66;;;6.43;74.94
78717;BME280;68045;50.042;14.432;2023-04-25T03:17:13;97481.59;;;6.45;75.00
78717;BME280;68045;50.042;14.432;2023-04-25T03:21:13;97485.50;;;6.54;74.47
78717;BME280;68045;50.042;14.432;2023-04-25T03:25:14;97481.84;;;6.55;74.60
78717;BME280;68045;50.042;14.432;2023-04-25T03:29:15;97483.81;;;6.59;74.22
78717;BME280;68045;50.042;14.432;2023-04-25T03:33:17;97487.00;;;6.61;74.52
78717;BME280;68045;50.042;14.432;2023-04-25T03:37:19;97480.47;;;6.52;74.30
78717;BME280;68045;50.042;14.432;2023-04-25T03:41:20;97483.66;;;6.54;74.17
78717;BME280;68045;50.042;14.432;2023-04-25T03:45:26;97487.69;;;6.57;74.52
78717;BME280;68045;50.042;14.432;2023-04-25T03:49:27;97477.66;;;6.66;73.86
78717;BME280;68045;50.042;14.432;2023-04-25T03:53:38;97481.75;;;6.61;73.72
78717;BME280;68045;50.042;14.432;2023-04-25T03:57:54;97481.56;;;6.63;73.51
78717;BME280;68045;50.042;14.432;2023-04-25T04:01:55;97484.09;;;6.70;73.09
78717;BME280;68045;50.042;14.432;2023-04-25T04:05:56;97481.56;;;6.63;73.56
78717;BME280;68045;50.042;14.432;2023-04-25T04:09:58;97484.66;;;6.72;73.95
78717;BME280;68045;50.042;14.432;2023-04-25T04:14:07;97483.25;;;6.69;73.52
78717;BME280;68045;50.042;14.432;2023-04-25T04:18:10;97477.34;;;6.74;73.42
78717;BME280;68045;50.042;14.432;2023-04-25T04:22:11;97487.59;;;6.75;73.57
78717;BME280;68045;50.042;14.432;2023-04-25T04:26:13;97480.63;;;6.69;74.61
78717;BME280;68045;50.042;14.432;2023-04-25T04:30:41;97487.59;;;6.75;74.15
78717;BME280;68045;50.042;14.432;2023-04-25T04:34:43;97495.69;;;6.74;74.01
78717;BME280;68045;50.042;14.432;2023-04-25T04:38:46;97480.09;;;6.79;74.28
78717;BME280;68045;50.042;14.432;2023-04-25T04:42:55;97476.22;;;6.81;74.12
78717;BME280;68045;50.042;14.432;2023-04-25T04:47:12;97482.88;;;6.84;74.50
78717;BME280;68045;50.042;14.432;2023-04-25T04:51:37;97487.06;;;6.97;74.10
78717;BME280;68045;50.042;14.432;2023-04-25T04:56:04;97491.19;;;6.93;73.76
78717;BME280;68045;50.042;14.432;2023-04-25T05:00:31;97488.09;;;6.96;73.63
78717;BME280;68045;50.042;14.432;2023-04-25T05:04:52;97494.25;;;6.89;74.14
78717;BME280;68045;50.042;14.432;2023-04-25T05:09:11;97496.25;;;7.06;73.94
78717;BME280;68045;50.042;14.432;2023-04-25T05:13:31;97485.63;;;7.24;72.41
78717;BME280;68045;50.042;14.432;2023-04-25T05:17:43;97492.97;;;7.34;71.81
78717;BME280;68045;50.042;14.432;2023-04-25T05:21:59;97488.16;;;7.54;71.86
78717;BME280;68045;50.042;14.432;2023-04-25T05:26:18;97487.81;;;7.51;71.45
78717;BME280;68045;50.042;14.432;2023-04-25T05:30:41;97478.91;;;7.63;71.59
78717;BME280;68045;50.042;14.432;2023-04-25T05:34:50;97484.81;;;7.70;71.54
78717;BME280;68045;50.042;14.432;2023-04-25T05:39:06;97482.63;;;7.67;71.60
78717;BME280;68045;50.042;14.432;2023-04-25T05:43:26;97482.53;;;7.74;70.94
78717;BME280;68045;50.042;14.432;2023-04-25T05:47:44;97487.56;;;7.76;71.23
78717;BME280;68045;50.042;14.432;2023-04-25T05:51:53;97490.19;;;7.76;71.16
78717;BME280;68045;50.042;14.432;2023-04-25T05:56:12;97491.97;;;7.87;70.85
78717;BME280;68045;50.042;14.432;2023-04-25T06:00:15;97494.22;;;8.07;70.41
78717;BME280;68045;50.042;14.432;2023-04-25T06:04:18;97485.56;;;8.06;69.87
78717;BME280;68045;50.042;14.432;2023-04-25T06:08:18;97492.94;;;8.21;69.96
78717;BME280;68045;50.042;14.432;2023-04-25T06:12:19;97478.38;;;8.30;69.57
78717;BME280;68045;50.042;14.432;2023-04-25T06:16:21;97483.16;;;8.45;68.87
78717;BME280;68045;50.042;14.432;2023-04-25T06:20:22;97487.28;;;8.41;69.22
78717;BME280;68045;50.042;14.432;2023-04-25T06:24:25;97475.97;;;8.40;68.86
78717;BME280;68045;50.042;14.432;2023-04-25T06:28:27;97474.97;;;8.58;68.96
78717;BME280;68045;50.042;14.432;2023-04-25T06:32:28;97474.38;;;8.68;67.84
78717;BME280;68045;50.042;14.432;2023-04-25T06:36:32;97473.88;;;8.71;67.95
78717;BME280;68045;50.042;14.432;2023-04-25T06:40:39;97474.78;;;8.76;67.89
78717;BME280;68045;50.042;14.432;2023-04-25T06:44:42;97465.03;;;8.94;67.21
78717;BME280;68045;50.042;14.432;2023-04-25T06:48:46;97467.91;;;9.09;67.05
78717;BME280;68045;50.042;14.432;2023-04-25T06:52:47;97466.72;;;9.00;67.49
78717;BME280;68045;50.042;14.432;2023-04-25T06:56:48;97468.97;;;9.08;67.29
78717;BME280;68045;50.042;14.432;2023-04-25T07:00:49;97465.53;;;9.24;66.88
78717;BME280;68045;50.042;14.432;2023-04-25T07:04:52;97468.38;;;9.23;67.17
78717;BME280;68045;50.042;14.432;2023-04-25T07:08:53;97467.69;;;9.27;66.68
78717;BME280;68045;50.042;14.432;2023-04-25T07:12:54;97461.69;;;9.32;66.85
78717;BME280;68045;50.042;14.432;2023-04-25T07:16:55;97461.63;;;9.27;66.97
78717;BME280;68045;50.042;14.432;2023-04-25T07:20:59;97464.91;;;9.17;67.36
78717;BME280;68045;50.042;14.432;2023-04-25T07:25:01;97464.97;;;9.39;67.00
78717;BME280;68045;50.042;14.432;2023-04-25T07:29:04;97461.66;;;9.66;65.90
78717;BME280;68045;50.042;14.432;2023-04-25T07:33:04;97469.06;;;10.12;63.16
78717;BME280;68045;50.042;14.432;2023-04-25T07:37:06;97469.06;;;10.34;63.71
78717;BME280;68045;50.042;14.432;2023-04-25T07:41:15;97467.75;;;10.91;61.29
78717;BME280;68045;50.042;14.432;2023-04-25T07:45:16;97463.25;;;11.23;59.42
78717;BME280;68045;50.042;14.432;2023-04-25T07:49:18;97461.94;;;11.63;58.28
78717;BME280;68045;50.042;14.432;2023-04-25T07:53:19;97460.81;;;12.01;57.57
78717;BME280;68045;50.042;14.432;2023-04-25T07:57:28;97467.22;;;12.26;56.21
78717;BME280;68045;50.042;14.432;2023-04-25T08:01:31;97457.47;;;12.36;56.74
78717;BME280;68045;50.042;14.432;2023-04-25T08:05:35;97450.94;;;13.00;54.14
78717;BME280;68045;50.042;14.432;2023-04-25T08:09:39;97452.47;;;13.57;52.55
78717;BME280;68045;50.042;14.432;2023-04-25T08:13:46;97444.28;;;13.49;50.70
78717;BME280;68045;50.042;14.432;2023-04-25T08:17:47;97447.69;;;13.69;50.62
78717;BME280;68045;50.042;14.432;2023-04-25T08:21:48;97448.69;;;13.79;50.30
78717;BME280;68045;50.042;14.432;2023-04-25T08:25:55;97440.94;;;14.02;49.44
78717;BME280;68045;50.042;14.432;2023-04-25T08:30:01;97443.94;;;14.35;48.80
78717;BME280;68045;50.042;14.432;2023-04-25T08:34:05;97434.81;;;14.91;47.27
78717;BME280;68045;50.042;14.432;2023-04-25T08:38:22;97448.50;;;14.74;45.66
78717;BME280;68045;50.042;14.432;2023-04-25T08:42:24;97440.97;;;14.47;45.83
78717;BME280;68045;50.042;14.432;2023-04-25T08:46:25;97446.84;;;14.39;45.58
78717;BME280;68045;50.042;14.432;2023-04-25T08:50:51;97445.03;;;13.59;48.28
78717;BME280;68045;50.042;14.432;2023-04-25T08:54:53;97453.81;;;12.88;50.27
78717;BME280;68045;50.042;14.432;2023-04-25T08:58:55;97454.84;;;12.42;50.98
78717;BME280;68045;50.042;14.432;2023-04-25T09:02:58;97450.34;;;12.52;51.77
78717;BME280;68045;50.042;14.432;2023-04-25T09:07:04;97449.34;;;12.69;51.00
78717;BME280;68045;50.042;14.432;2023-04-25T09:11:06;97449.03;;;12.60;51.64
78717;BME280;68045;50.042;14.432;2023-04-25T09:15:12;97456.47;;;12.68;50.89
78717;BME280;68045;50.042;14.432;2023-04-25T09:19:34;97461.72;;;12.53;50.37
78717;BME280;68045;50.042;14.432;2023-04-25T09:23:54;97462.44;;;12.13;51.57
78717;BME280;68045;50.042;14.432;2023-04-25T09:27:55;97470.19;;;11.77;51.73
78717;BME280;68045;50.042;14.432;2023-04-25T09:32:28;97476.47;;;11.66;53.62
78717;BME280;68045;50.042;14.432;2023-04-25T09:36:31;97467.00;;;11.75;54.68
78717;BME280;68045;50.042;14.432;2023-04-25T09:40:52;97476.97;;;12.10;56.31
78717;BME280;68045;50.042;14.432;2023-04-25T09:45:03;97491.13;;;12.51;54.28
78717;BME280;68045;50.042;14.432;2023-04-25T09:49:08;97468.16;;;12.98;51.72
78717;BME280;68045;50.042;14.432;2023-04-25T09:53:31;97475.66;;;14.01;48.80
78717;BME280;68045;50.042;14.432;2023-04-25T09:58:05;97496.50;;;14.88;45.93
78717;BME280;68045;50.042;14.432;2023-04-25T10:02:08;97503.91;;;14.41;46.42
78717;BME280;68045;50.042;14.432;2023-04-25T10:06:20;97510.81;;;13.52;48.23
78717;BME280;68045;50.042;14.432;2023-04-25T10:10:24;97522.16;;;12.81;51.18
78717;BME280;68045;50.042;14.432;2023-04-25T10:14:29;97523.59;;;12.26;53.83
78717;BME280;68045;50.042;14.432;2023-04-25T10:18:32;97528.16;;;11.89;55.33
78717;BME280;68045;50.042;14.432;2023-04-25T10:22:36;97536.25;;;11.72;56.66
78717;BME280;68045;50.042;14.432;2023-04-25T10:26:38;97535.72;;;11.75;58.40
78717;BME280;68045;50.042;14.432;2023-04-25T10:31:00;97549.53;;;11.82;58.40
78717;BME280;68045;50.042;14.432;2023-04-25T10:35:46;97559.25;;;11.76;59.81
78717;BME280;68045;50.042;14.432;2023-04-25T10:39:41;97550.44;;;11.61;58.91
78717;BME280;68045;50.042;14.432;2023-04-25T10:43:44;97564.75;;;11.33;57.85
78717;BME280;68045;50.042;14.432;2023-04-25T10:47:45;97560.00;;;11.03;58.07
78717;BME280;68045;50.042;14.432;2023-04-25T10:51:46;97553.88;;;10.97;57.42
78717;BME280;68045;50.042;14.432;2023-04-25T10:55:50;97563.09;;;10.94;57.50
78717;BME280;68045;50.042;14.432;2023-04-25T10:59:52;97567.53;;;10.89;58.35
78717;BME280;68045;50.042;14.432;2023-04-25T11:03:57;97563.25;;;10.83;58.82
78717;BME280;68045;50.042;14.432;2023-04-25T11:07:59;97568.84;;;10.91;59.12
78717;BME280;68045;50.042;14.432;2023-04-25T11:12:00;97578.88;;;10.89;58.89
78717;BME280;68045;50.042;14.432;2023-04-25T11:16:01;97585.94;;;10.84;60.37
78717;BME280;68045;50.042;14.432;2023-04-25T11:20:02;97585.88;;;11.00;60.24
78717;BME280;68045;50.042;14.432;2023-04-25T11:24:08;97578.44;;;11.24;57.95
78717;BME280;68045;50.042;14.432;2023-04-25T11:28:09;97583.41;;;11.53;57.32
78717;BME280;68045;50.042;14.432;2023-04-25T11:32:09;97590.63;;;11.63;57.37
78717;BME280;68045;50.042;14.432;2023-04-25T11:36:11;97580.72;;;11.43;57.90
78717;BME280;68045;50.042;14.432;2023-04-25T11:40:12;97583.72;;;11.57;58.51
78717;BME280;68045;50.042;14.432;2023-04-25T11:44:16;97577.09;;;11.86;56.12
78717;BME280;68045;50.042;14.432;2023-04-25T11:48:18;97593.41;;;12.20;52.72
78717;BME280;68045;50.042;14.432;2023-04-25T11:52:19;97582.28;;;12.86;49.55
78717;BME280;68045;50.042;14.432;2023-04-25T11:56:21;97583.66;;;14.11;45.74
78717;BME280;68045;50.042;14.432;2023-04-25T12:00:22;97575.94;;;16.20;40.87
78717;BME280;68045;50.042;14.432;2023-04-25T12:04:24;97564.53;;;18.17;35.96
78717;BME280;68045;50.042;14.432;2023-04-25T12:08:25;97567.31;;;19.17;32.94
78717;BME280;68045;50.042;14.432;2023-04-25T12:12:33;97565.28;;;19.00;32.79
78717;BME280;68045;50.042;14.432;2023-04-25T12:16:45;97566.56;;;19.61;30.64
78717;BME280;68045;50.042;14.432;2023-04-25T12:20:47;97567.41;;;20.01;30.73
78717;BME280;68045;50.042;14.432;2023-04-25T12:24:48;97566.88;;;19.91;29.95
78717;BME280;68045;50.042;14.432;2023-04-25T12:28:49;97556.34;;;19.49;29.48
78717;BME280;68045;50.042;14.432;2023-04-25T12:32:49;97550.47;;;19.39;29.61
78717;BME280;68045;50.042;14.432;2023-04-25T12:36:51;97552.63;;;19.37;28.61
78717;BME280;68045;50.042;14.432;2023-04-25T12:40:54;97559.97;;;19.09;28.33
78717;BME280;68045;50.042;14.432;2023-04-25T12:44:55;97559.81;;;19.28;27.57
78717;BME280;68045;50.042;14.432;2023-04-25T12:48:55;97563.53;;;18.82;29.13
78717;BME280;68045;50.042;14.432;2023-04-25T12:52:57;97570.09;;;17.42;31.22
78717;BME280;68045;50.042;14.432;2023-04-25T12:56:58;97569.97;;;16.77;33.32
78717;BME280;68045;50.042;14.432;2023-04-25T13:00:59;97568.50;;;16.41;34.53
78717;BME280;68045;50.042;14.432;2023-04-25T13:05:00;97580.41;;;16.01;36.43
78717;BME280;68045;50.042;14.432;2023-04-25T13:09:01;97578.81;;;15.37;36.24
78717;BME280;68045;50.042;14.432;2023-04-25T13:13:02;97592.00;;;15.08;37.09
78717;BME280;68045;50.042;14.432;2023-04-25T13:17:03;97579.47;;;14.74;38.68
78717;BME280;68045;50.042;14.432;2023-04-25T13:21:04;97589.66;;;14.52;38.91
78717;BME280;68045;50.042;14.432;2023-04-25T13:25:07;97598.94;;;14.49;38.55
78717;BME280;68045;50.042;14.432;2023-04-25T13:29:08;97605.56;;;14.57;38.55
78717;BME280;68045;50.042;14.432;2023-04-25T13:33:09;97592.53;;;14.61;39.51
78717;BME280;68045;50.042;14.432;2023-04-25T13:37:10;97612.06;;;14.90;38.29
78717;BME280;68045;50.042;14.432;2023-04-25T13:41:11;97608.44;;;15.15;37.79
78717;BME280;68045;50.042;14.432;2023-04-25T13:45:18;97610.88;;;15.11;38.11
78717;BME280;68045;50.042;14.432;2023-04-25T13:49:19;97602.38;;;14.60;38.30
78717;BME280;68045;50.042;14.432;2023-04-25T13:53:20;97620.72;;;14.41;39.72
78717;BME280;68045;50.042;14.432;2023-04-25T13:57:21;97629.22;;;14.43;39.13
78717;BME280;68045;50.042;14.432;2023-04-25T14:01:22;97630.16;;;14.83;38.31
78717;BME280;68045;50.042;14.432;2023-04-25T14:05:23;97630.34;;;15.46;37.25
78717;BME280;68045;50.042;14.432;2023-04-25T14:09:24;97638.19;;;16.01;35.33
78717;BME280;68045;50.042;14.432;2023-04-25T14:13:26;97637.41;;;16.48;34.31
78717;BME280;68045;50.042;14.432;2023-04-25T14:17:27;97634.81;;;16.91;34.45
78717;BME280;68045;50.042;14.432;2023-04-25T14:21:29;97640.56;;;16.79;34.47
78717;BME280;68045;50.042;14.432;2023-04-25T14:25:32;97637.03;;;16.84;34.34
78717;BME280;68045;50.042;14.432;2023-04-25T14:29:33;97628.97;;;16.41;34.85
78717;BME280;68045;50.042;14.432;2023-04-25T14:33:34;97635.22;;;16.02;34.86
78717;BME280;68045;50.042;14.432;2023-04-25T14:37:35;97643.72;;;15.75;35.57
78717;BME280;68045;50.042;14.432;2023-04-25T14:41:36;97640.94;;;15.51;36.54
78717;BME280;68045;50.042;14.432;2023-04-25T14:45:37;97640.94;;;15.51;37.21
78717;BME280;68045;50.042;14.432;2023-04-25T14:49:38;97661.44;;;15.51;37.25
78717;BME280;68045;50.042;14.432;2023-04-25T14:53:40;97668.28;;;15.62;37.91
78717;BME280;68045;50.042;14.432;2023-04-25T14:57:41;97663.84;;;15.42;36.89
78717;BME280;68045;50.042;14.432;2023-04-25T15:01:42;97668.78;;;15.15;36.18
78717;BME280;68045;50.042;14.432;2023-04-25T15:05:43;97668.91;;;14.94;35.83
78717;BME280;68045;50.042;14.432;2023-04-25T15:09:44;97684.00;;;15.09;35.86
78717;BME280;68045;50.042;14.432;2023-04-25T15:13:45;97685.13;;;14.93;37.20
78717;BME280;68045;50.042;14.432;2023-04-25T15:17:46;97689.16;;;14.80;38.22
78717;BME280;68045;50.042;14.432;2023-04-25T15:21:47;97695.81;;;14.72;38.41
78717;BME280;68045;50.042;14.432;2023-04-25T15:25:50;97698.22;;;14.64;39.36
78717;BME280;68045;50.042;14.432;2023-04-25T15:29:51;97691.91;;;14.39;40.62
78717;BME280;68045;50.042;14.432;2023-04-25T15:33:53;97692.16;;;14.27;40.88
78717;BME280;68045;50.042;14.432;2023-04-25T15:37:54;97701.72;;;14.23;41.37
78717;BME280;68045;50.042;14.432;2023-04-25T15:41:55;97705.19;;;14.19;39.87
78717;BME280;68045;50.042;14.432;2023-04-25T15:45:57;97709.16;;;14.32;40.09
78717;BME280;68045;50.042;14.432;2023-04-25T15:49:58;97728.00;;;14.15;40.74
78717;BME280;68045;50.042;14.432;2023-04-25T15:53:59;97726.69;;;13.77;41.51
78717;BME280;68045;50.042;14.432;2023-04-25T15:58:02;97729.81;;;13.58;42.37
78717;BME280;68045;50.042;14.432;2023-04-25T16:02:03;97729.47;;;13.29;43.57
78717;BME280;68045;50.042;14.432;2023-04-25T16:06:04;97737.28;;;12.99;44.51
78717;BME280;68045;50.042;14.432;2023-04-25T16:10:06;97731.44;;;12.91;45.39
78717;BME280;68045;50.042;14.432;2023-04-25T16:14:07;97740.44;;;12.90;45.33
78717;BME280;68045;50.042;14.432;2023-04-25T16:18:08;97740.53;;;12.63;45.95
78717;BME280;68045;50.042;14.432;2023-04-25T16:22:09;97761.06;;;12.46;46.44
78717;BME280;68045;50.042;14.432;2023-04-25T16:26:12;97756.75;;;12.35;46.42
78717;BME280;68045;50.042;14.432;2023-04-25T16:30:13;97755.75;;;12.09;47.73
78717;BME280;68045;50.042;14.432;2023-04-25T16:34:14;97760.31;;;11.87;47.95
78717;BME280;68045;50.042;14.432;2023-04-25T16:38:15;97765.88;;;11.85;48.38
78717;BME280;68045;50.042;14.432;2023-04-25T16:42:16;97764.50;;;11.82;49.10
78717;BME280;68045;50.042;14.432;2023-04-25T16:46:17;97758.16;;;11.83;49.10
78717;BME280;68045;50.042;14.432;2023-04-25T16:50:19;97767.28;;;11.98;49.10
78717;BME280;68045;50.042;14.432;2023-04-25T16:54:20;97770.41;;;11.90;49.19
78717;BME280;68045;50.042;14.432;2023-04-25T16:58:21;97776.31;;;11.75;50.26
78717;BME280;68045;50.042;14.432;2023-04-25T17:02:22;97774.78;;;11.79;49.66
78717;BME280;68045;50.042;14.432;2023-04-25T17:06:23;97771.66;;;11.60;50.46
78717;BME280;68045;50.042;14.432;2023-04-25T17:10:24;97782.06;;;11.45;49.72
78717;BME280;68045;50.042;14.432;2023-04-25T17:14:25;97795.72;;;11.37;49.70
78717;BME280;68045;50.042;14.432;2023-04-25T17:18:27;97797.06;;;11.17;50.50
78717;BME280;68045;50.042;14.432;2023-04-25T17:22:28;97805.50;;;11.14;50.00
78717;BME280;68045;50.042;14.432;2023-04-25T17:26:30;97812.88;;;10.95;49.26
78717;BME280;68045;50.042;14.432;2023-04-25T17:30:31;97816.03;;;10.76;49.60
78717;BME280;68045;50.042;14.432;2023-04-25T17:34:32;97820.19;;;10.55;50.04
78717;BME280;68045;50.042;14.432;2023-04-25T17:38:34;97827.09;;;10.39;50.48
78717;BME280;68045;50.042;14.432;2023-04-25T17:42:39;97836.75;;;10.33;49.94
78717;BME280;68045;50.042;14.432;2023-04-25T17:46:41;97840.44;;;10.21;50.21
78717;BME280;68045;50.042;14.432;2023-04-25T17:50:42;97854.66;;;10.03;51.11
78717;BME280;68045;50.042;14.432;2023-04-25T17:54:42;97865.78;;;9.93;51.84
78717;BME280;68045;50.042;14.432;2023-04-25T17:58:43;97865.34;;;9.96;51.43
78717;BME280;68045;50.042;14.432;2023-04-25T18:02:44;97875.69;;;9.86;51.74
78717;BME280;68045;50.042;14.432;2023-04-25T18:06:47;97877.31;;;9.87;52.24
78717;BME280;68045;50.042;14.432;2023-04-25T18:10:48;97881.91;;;9.80;51.83
78717;BME280;68045;50.042;14.432;2023-04-25T18:14:48;97888.00;;;9.69;51.90
78717;BME280;68045;50.042;14.432;2023-04-25T18:18:50;97892.25;;;9.70;52.40
78717;BME280;68045;50.042;14.432;2023-04-25T18:22:52;97900.13;;;9.70;52.75
78717;BME280;68045;50.042;14.432;2023-04-25T18:26:53;97894.56;;;9.54;54.21
78717;BME280;68045;50.042;14.432;2023-04-25T18:30:55;97900.53;;;9.50;55.08
78717;BME280;68045;50.042;14.432;2023-04-25T18:34:56;97901.69;;;9.42;55.28
78717;BME280;68045;50.042;14.432;2023-04-25T18:38:57;97915.31;;;9.27;55.68
78717;BME280;68045;50.042;14.432;2023-04-25T18:42:59;97928.50;;;9.04;55.37
78717;BME280;68045;50.042;14.432;2023-04-25T18:47:00;97951.03;;;9.00;55.59
78717;BME280;68045;50.042;14.432;2023-04-25T18:51:01;97962.00;;;8.85;55.09
78717;BME280;68045;50.042;14.432;2023-04-25T18:55:02;97963.16;;;8.89;55.84
78717;BME280;68045;50.042;14.432;2023-04-25T18:59:04;97969.03;;;8.73;55.96
78717;BME280;68045;50.042;14.432;2023-04-25T19:03:05;97973.97;;;8.69;55.41
78717;BME280;68045;50.042;14.432;2023-04-25T19:07:06;97967.31;;;8.67;54.21
78717;BME280;68045;50.042;14.432;2023-04-25T19:11:07;97976.31;;;8.59;53.74
78717;BME280;68045;50.042;14.432;2023-04-25T19:15:08;97978.16;;;8.59;53.81
78717;BME280;68045;50.042;14.432;2023-04-25T19:19:10;97983.41;;;8.59;54.31
78717;BME280;68045;50.042;14.432;2023-04-25T19:23:11;97971.53;;;8.56;54.39
78717;BME280;68045;50.042;14.432;2023-04-25T19:27:12;97977.81;;;8.55;54.50
78717;BME280;68045;50.042;14.432;2023-04-25T19:31:13;97976.22;;;8.54;53.66
78717;BME280;68045;50.042;14.432;2023-04-25T19:35:14;97979.66;;;8.55;53.14
78717;BME280;68045;50.042;14.432;2023-04-25T19:39:15;97978.94;;;8.47;53.35
78717;BME280;68045;50.042;14.432;2023-04-25T19:43:16;97994.81;;;8.41;53.74
78717;BME280;68045;50.042;14.432;2023-04-25T19:47:17;97997.91;;;8.31;53.81
78717;BME280;68045;50.042;14.432;2023-04-25T19:51:18;98003.06;;;8.26;54.16
78717;BME280;68045;50.042;14.432;2023-04-25T19:55:19;98002.38;;;8.31;54.17
78717;BME280;68045;50.042;14.432;2023-04-25T19:59:20;98000.34;;;8.33;54.70
78717;BME280;68045;50.042;14.432;2023-04-25T20:03:21;98007.50;;;8.25;53.62
78717;BME280;68045;50.042;14.432;2023-04-25T20:07:22;98010.00;;;8.20;55.09
78717;BME280;68045;50.042;14.432;2023-04-25T20:11:24;98013.66;;;8.19;54.05
78717;BME280;68045;50.042;14.432;2023-04-25T20:15:28;98009.56;;;8.05;54.41
78717;BME280;68045;50.042;14.432;2023-04-25T20:19:29;98016.72;;;7.98;54.60
78717;BME280;68045;50.042;14.432;2023-04-25T20:23:30;98011.22;;;7.81;55.15
78717;BME280;68045;50.042;14.432;2023-04-25T20:27:34;98022.47;;;7.70;55.14
78717;BME280;68045;50.042;14.432;2023-04-25T20:31:37;98017.91;;;7.59;56.05
78717;BME280;68045;50.042;14.432;2023-04-25T20:35:38;98024.34;;;7.63;55.73
78717;BME280;68045;50.042;14.432;2023-04-25T20:39:39;98023.63;;;7.74;55.06
78717;BME280;68045;50.042;14.432;2023-04-25T20:43:40;98031.31;;;7.76;54.76
78717;BME280;68045;50.042;14.432;2023-04-25T20:47:41;98032.19;;;7.69;55.19
78717;BME280;68045;50.042;14.432;2023-04-25T20:51:43;98032.31;;;7.75;54.35
78717;BME280;68045;50.042;14.432;2023-04-25T20:55:44;98036.13;;;7.79;54.38
78717;BME280;68045;50.042;14.432;2023-04-25T20:59:45;98032.91;;;7.77;54.18
78717;BME280;68045;50.042;14.432;2023-04-25T21:03:46;98027.94;;;7.68;53.90
78717;BME280;68045;50.042;14.432;2023-04-25T21:07:48;98031.44;;;7.62;54.45
78717;BME280;68045;50.042;14.432;2023-04-25T21:11:49;98030.03;;;7.60;55.06
78717;BME280;68045;50.042;14.432;2023-04-25T21:15:51;98037.97;;;7.53;55.61
78717;BME280;68045;50.042;14.432;2023-04-25T21:19:52;98029.44;;;7.58;55.21
78717;BME280;68045;50.042;14.432;2023-04-25T21:23:53;98047.66;;;7.53;55.41